createdAt,value
2018-07-10T00:02:34.716Z,3.13
2018-07-10T00:07:18.324Z,2.80
2018-07-10T00:10:02.497Z,3.27
2018-07-10T00:12:31.309Z,2.50
2018-07-10T00:15:00.178Z,2.43
2018-07-10T00:17:28.942Z,3.73
2018-07-10T00:19:57.761Z,2.40
2018-07-10T00:22:26.630Z,2.40
2018-07-10T00:24:55.457Z,2.43
2018-07-10T00:27:24.272Z,2.90
2018-07-10T00:29:52.998Z,2.37
2018-07-10T00:32:21.849Z,2.90
2018-07-10T00:34:50.621Z,2.47
2018-07-10T00:37:19.446Z,2.93
2018-07-10T00:39:48.144Z,2.53
2018-07-10T00:42:17.213Z,2.40
2018-07-10T00:44:45.993Z,2.23
2018-07-10T00:47:14.718Z,2.83
2018-07-10T00:49:43.577Z,2.70
2018-07-10T00:52:13.141Z,2.60
2018-07-10T00:54:41.877Z,2.40
2018-07-10T00:57:10.709Z,3.13
2018-07-10T00:59:39.522Z,3.30
2018-07-10T01:02:08.373Z,2.23
2018-07-10T01:04:37.133Z,1.93
2018-07-10T01:07:05.965Z,2.40
2018-07-10T01:09:34.688Z,4.07
2018-07-10T01:12:03.537Z,2.13
2018-07-10T01:14:32.389Z,2.33
2018-07-10T01:17:01.157Z,2.63
2018-07-10T01:19:30.019Z,2.20
2018-07-10T01:21:58.789Z,2.30
2018-07-10T01:24:27.557Z,2.30
2018-07-10T01:26:56.306Z,4.20
2018-07-10T01:29:30.440Z,2.50
2018-07-10T01:31:59.329Z,3.20
2018-07-10T01:34:28.227Z,2.43
2018-07-10T01:36:57.020Z,2.33
2018-07-10T01:39:25.831Z,3.00
2018-07-10T01:41:54.650Z,2.93
2018-07-10T01:44:23.425Z,2.77
2018-07-10T01:46:52.226Z,3.00
2018-07-10T01:49:20.925Z,2.60
2018-07-10T01:51:49.672Z,3.10
2018-07-10T01:54:18.570Z,3.60
2018-07-10T01:56:47.430Z,3.13
2018-07-10T01:59:16.549Z,3.43
2018-07-10T02:01:45.369Z,4.17
2018-07-10T02:04:14.167Z,4.90
2018-07-10T02:06:43.017Z,3.20
2018-07-10T02:09:11.838Z,4.27
2018-07-10T02:11:40.640Z,3.20
2018-07-10T02:14:09.486Z,3.03
2018-07-10T02:16:44.122Z,3.50
2018-07-10T02:19:12.882Z,3.13
2018-07-10T02:21:41.685Z,3.07
2018-07-10T02:24:10.470Z,3.53
2018-07-10T02:26:39.505Z,2.80
2018-07-10T02:29:25.077Z,3.77
2018-07-10T02:31:53.901Z,3.20
2018-07-10T02:34:22.717Z,3.43
2018-07-10T02:36:51.466Z,3.97
2018-07-10T02:39:20.410Z,2.70
2018-07-10T02:41:49.521Z,3.47
2018-07-10T02:44:18.321Z,3.10
2018-07-10T02:46:47.249Z,3.20
2018-07-10T02:49:18.451Z,2.90
2018-07-10T02:52:07.133Z,2.50
2018-07-10T02:54:38.461Z,2.70
2018-07-10T02:57:09.005Z,3.60
2018-07-10T03:02:41.274Z,3.00
2018-07-10T03:05:10.045Z,3.70
2018-07-10T03:07:38.970Z,3.73
2018-07-10T03:10:07.761Z,4.97
2018-07-10T03:12:37.345Z,3.80
2018-07-10T03:15:07.886Z,3.80
2018-07-10T03:17:36.719Z,4.13
2018-07-10T03:20:07.081Z,4.87
2018-07-10T03:22:36.105Z,4.53
2018-07-10T03:25:05.295Z,5.70
2018-07-10T03:27:34.289Z,5.70
2018-07-10T03:30:05.229Z,5.63
2018-07-10T03:32:33.997Z,4.80
2018-07-10T03:35:02.857Z,4.93
2018-07-10T03:37:31.641Z,4.03
2018-07-10T03:40:00.401Z,4.37
2018-07-10T03:42:29.125Z,3.17
2018-07-10T03:44:57.885Z,3.93
2018-07-10T03:47:26.922Z,5.13
2018-07-10T03:52:33.133Z,2.83
2018-07-10T03:55:07.565Z,2.03
2018-07-10T03:57:36.548Z,3.03
2018-07-10T04:00:09.683Z,2.57
2018-07-10T04:02:43.371Z,1.63
2018-07-10T04:05:12.953Z,1.67
2018-07-10T04:07:41.910Z,4.80
2018-07-10T04:10:12.325Z,1.80
2018-07-10T04:12:41.946Z,2.30
2018-07-10T04:15:11.342Z,3.90
2018-07-10T04:17:48.163Z,2.50
2018-07-10T04:20:17.469Z,1.60
2018-07-10T04:22:54.188Z,1.90
2018-07-10T04:25:26.533Z,1.30
2018-07-10T04:28:05.652Z,2.07
2018-07-10T04:30:47.017Z,5.20
2018-07-10T04:33:16.152Z,2.07
2018-07-10T04:35:45.093Z,3.17
2018-07-10T04:38:13.933Z,3.10
2018-07-10T04:40:42.738Z,2.47
2018-07-10T04:43:17.047Z,3.23
2018-07-10T04:45:46.991Z,1.40
2018-07-10T04:48:24.385Z,1.80
2018-07-10T04:50:56.437Z,2.67
2018-07-10T04:53:33.920Z,1.90
2018-07-10T04:56:03.054Z,1.77
2018-07-10T04:58:31.937Z,1.40
2018-07-10T05:01:04.851Z,3.27
2018-07-10T05:03:33.696Z,1.50
2018-07-10T05:06:06.516Z,2.97
2018-07-10T05:08:35.887Z,2.10
2018-07-10T05:11:04.677Z,1.80
2018-07-10T05:13:33.552Z,1.73
2018-07-10T05:16:08.725Z,2.93
2018-07-10T05:18:37.597Z,1.83
2018-07-10T05:21:08.741Z,2.40
2018-07-10T05:23:37.510Z,1.57
2018-07-10T05:26:16.697Z,2.70
2018-07-10T05:28:46.304Z,1.43
2018-07-10T05:31:16.145Z,2.30
2018-07-10T05:33:48.015Z,2.80
2018-07-10T05:36:17.933Z,2.40
2018-07-10T05:38:47.562Z,1.87
2018-07-10T05:41:18.709Z,1.90
2018-07-10T05:43:49.349Z,2.60
2018-07-10T05:46:20.344Z,2.73
2018-07-10T05:48:57.701Z,5.30
2018-07-10T05:51:28.765Z,2.40
2018-07-10T05:53:57.516Z,2.73
2018-07-10T05:56:27.446Z,1.23
2018-07-10T05:58:56.293Z,2.50
2018-07-10T06:01:25.090Z,1.73
2018-07-10T06:03:53.890Z,6.00
2018-07-10T06:06:22.753Z,1.73
2018-07-10T06:08:54.685Z,1.40
2018-07-10T06:11:27.921Z,3.27
2018-07-10T06:14:05.795Z,3.47
2018-07-10T06:16:41.229Z,2.93
2018-07-10T06:19:11.069Z,3.00
2018-07-10T06:21:51.217Z,2.90
2018-07-10T06:24:23.826Z,1.83
2018-07-10T06:27:00.587Z,2.33
2018-07-10T06:29:55.966Z,1.57
2018-07-10T06:32:35.641Z,2.03
2018-07-10T06:35:11.377Z,1.37
2018-07-10T06:40:32.852Z,2.10
2018-07-10T06:43:13.905Z,3.53
2018-07-10T06:45:43.151Z,4.27
2018-07-10T06:48:12.474Z,3.30
2018-07-10T06:50:49.105Z,2.20
2018-07-10T06:53:20.093Z,1.50
2018-07-10T06:55:51.785Z,3.47
2018-07-10T06:58:22.577Z,2.43
2018-07-10T07:00:56.174Z,2.40
2018-07-10T07:03:26.077Z,3.80
2018-07-10T07:06:02.089Z,2.20
2018-07-10T07:08:30.895Z,2.40
2018-07-10T07:10:59.766Z,3.87
2018-07-10T07:13:28.583Z,1.43
2018-07-10T07:15:58.408Z,1.77
2018-07-10T07:18:27.329Z,4.23
2018-07-10T07:20:57.225Z,1.50
2018-07-10T07:23:26.126Z,2.60
2018-07-10T07:25:54.922Z,1.50
2018-07-10T07:28:23.833Z,1.73
2018-07-10T07:31:12.598Z,4.17
2018-07-10T07:33:41.441Z,1.93
2018-07-10T07:36:10.265Z,2.80
2018-07-10T07:38:39.337Z,4.47
2018-07-10T07:41:08.087Z,1.50
2018-07-10T07:43:37.149Z,2.50
2018-07-10T07:46:05.845Z,2.50
2018-07-10T07:48:34.695Z,1.57
2018-07-10T07:51:03.593Z,1.97
2018-07-10T07:53:32.401Z,2.43
2018-07-10T07:56:15.817Z,1.97
2018-07-10T07:58:44.675Z,1.87
2018-07-10T08:01:15.646Z,0.80
2018-07-10T08:03:44.470Z,1.13
2018-07-10T08:06:13.323Z,1.23
2018-07-10T08:08:42.129Z,0.90
2018-07-10T08:11:11.318Z,0.67
2018-07-10T08:13:40.213Z,0.60
2018-07-10T08:16:23.600Z,0.77
2018-07-10T08:18:52.357Z,3.77
2018-07-10T08:21:21.150Z,1.10
2018-07-10T08:23:49.977Z,1.07
2018-07-10T08:26:19.249Z,0.70
2018-07-10T08:28:48.054Z,1.80
2018-07-10T08:31:16.875Z,0.93
2018-07-10T08:33:45.716Z,1.87
2018-07-10T08:36:14.446Z,0.80
2018-07-10T08:38:46.379Z,1.93
2018-07-10T08:41:20.801Z,1.67
2018-07-10T08:43:49.718Z,0.60
2018-07-10T08:46:32.038Z,0.77
2018-07-10T08:49:00.831Z,0.80
2018-07-10T08:51:29.880Z,1.77
2018-07-10T08:56:51.331Z,1.67
2018-07-10T08:59:20.154Z,0.93
2018-07-10T09:01:49.388Z,1.97
2018-07-10T09:04:20.857Z,0.60
2018-07-10T09:06:49.784Z,1.90
2018-07-10T09:09:19.043Z,1.33
2018-07-10T09:11:47.890Z,2.63
2018-07-10T09:14:17.377Z,1.57
2018-07-10T09:16:46.533Z,1.73
2018-07-10T09:19:19.486Z,2.50
2018-07-10T09:21:51.149Z,1.13
2018-07-10T09:24:20.038Z,1.13
2018-07-10T09:26:51.270Z,1.37
2018-07-10T09:29:21.506Z,1.07
2018-07-10T09:31:51.318Z,0.90
2018-07-10T09:34:20.049Z,0.87
2018-07-10T09:36:52.895Z,1.20
2018-07-10T09:39:21.941Z,3.83
2018-07-10T09:41:50.765Z,1.00
2018-07-10T09:44:19.750Z,0.90
2018-07-10T09:46:48.442Z,1.03
2018-07-10T09:49:17.286Z,2.63
2018-07-10T09:51:46.054Z,2.10
2018-07-10T09:54:15.013Z,1.87
2018-07-10T09:56:43.813Z,3.90
2018-07-10T09:59:12.638Z,1.20
2018-07-10T10:01:54.713Z,2.23
2018-07-10T10:04:23.474Z,3.90
2018-07-10T10:07:14.448Z,4.20
2018-07-10T10:09:43.222Z,2.20
2018-07-10T10:12:13.165Z,2.87
2018-07-10T10:14:42.262Z,2.63
2018-07-10T10:17:11.118Z,2.97
2018-07-10T10:19:39.961Z,1.43
2018-07-10T10:22:08.845Z,1.60
2018-07-10T10:24:37.660Z,1.37
2018-07-10T10:27:12.646Z,1.50
2018-07-10T10:29:41.529Z,2.10
2018-07-10T10:32:17.910Z,2.60
2018-07-10T10:34:46.877Z,2.07
2018-07-10T10:37:15.853Z,1.80
2018-07-10T10:39:44.761Z,2.87
2018-07-10T10:42:14.423Z,2.27
2018-07-10T10:44:43.326Z,3.20
2018-07-10T10:47:15.554Z,1.30
2018-07-10T10:49:44.474Z,1.30
2018-07-10T10:52:19.586Z,1.30
2018-07-10T10:54:48.490Z,2.43
2018-07-10T10:57:17.803Z,2.30
2018-07-10T10:59:50.053Z,2.10
2018-07-10T11:02:19.226Z,3.70
2018-07-10T11:04:48.766Z,1.97
2018-07-10T11:07:18.385Z,1.40
2018-07-10T11:09:47.362Z,2.90
2018-07-10T11:12:15.928Z,1.50
2018-07-10T11:14:45.729Z,1.70
2018-07-10T11:17:22.794Z,3.90
2018-07-10T11:20:00.503Z,1.47
2018-07-10T11:22:29.798Z,1.20
2018-07-10T11:25:04.003Z,2.50
2018-07-10T11:27:47.135Z,2.70
2018-07-10T11:30:16.240Z,2.63
2018-07-10T11:32:45.109Z,1.60
2018-07-10T11:35:13.958Z,1.33
2018-07-10T11:37:42.761Z,2.13
2018-07-10T11:40:11.610Z,1.70
2018-07-10T11:42:40.745Z,1.30
2018-07-10T11:45:09.633Z,1.63
2018-07-10T11:47:38.442Z,3.77
2018-07-10T11:50:07.213Z,1.30
2018-07-10T11:52:36.510Z,1.03
2018-07-10T11:55:05.346Z,2.93
2018-07-10T11:57:34.105Z,1.17
2018-07-10T12:00:02.956Z,3.43
2018-07-10T12:02:43.961Z,3.33
2018-07-10T12:05:13.887Z,4.20
2018-07-10T12:07:43.082Z,2.00
2018-07-10T12:10:20.250Z,2.90
2018-07-10T12:12:50.177Z,2.57
2018-07-10T12:15:19.245Z,1.13
2018-07-10T12:17:49.949Z,1.07
2018-07-10T12:20:24.705Z,2.93
2018-07-10T12:22:53.614Z,2.40
2018-07-10T12:25:22.478Z,2.97
2018-07-10T12:27:51.338Z,0.97
2018-07-10T12:30:20.200Z,1.33
2018-07-10T12:32:49.009Z,1.63
2018-07-10T12:35:17.797Z,1.13
2018-07-10T12:37:52.637Z,1.10
2018-07-10T12:40:21.406Z,3.37
2018-07-10T12:42:50.233Z,0.80
2018-07-10T12:45:21.105Z,2.40
2018-07-10T12:47:49.933Z,2.13
2018-07-10T12:50:18.870Z,3.03
2018-07-10T12:52:47.813Z,1.83
2018-07-10T12:55:17.017Z,1.57
2018-07-10T12:57:59.288Z,2.87
2018-07-10T13:00:29.869Z,2.70
2018-07-10T13:03:00.289Z,2.40
2018-07-10T13:05:30.874Z,3.73
2018-07-10T13:07:59.729Z,3.50
2018-07-10T13:10:28.529Z,1.37
2018-07-10T13:12:57.451Z,8.57
2018-07-10T13:15:26.350Z,3.83
2018-07-10T13:17:57.478Z,3.77
2018-07-10T13:20:26.235Z,2.80
2018-07-10T13:22:59.226Z,2.50
2018-07-10T13:25:28.089Z,3.57
2018-07-10T13:27:57.093Z,2.77
2018-07-10T13:30:25.938Z,1.37
2018-07-10T13:32:54.780Z,1.57
2018-07-10T13:35:23.661Z,1.57
2018-07-10T13:37:52.533Z,10.07
2018-07-10T13:40:21.352Z,4.13
2018-07-10T13:42:59.969Z,2.83
2018-07-10T13:45:30.033Z,1.93
2018-07-10T13:47:59.174Z,3.60
2018-07-10T13:50:33.019Z,5.67
2018-07-10T13:53:02.691Z,4.40
2018-07-10T13:55:32.136Z,5.83
2018-07-10T13:58:15.509Z,1.17
2018-07-10T14:00:46.130Z,1.93
2018-07-10T14:03:15.109Z,3.47
2018-07-10T14:05:43.958Z,1.40
2018-07-10T14:08:12.762Z,3.53
2018-07-10T14:10:41.645Z,2.00
2018-07-10T14:13:10.370Z,4.37
2018-07-10T14:15:39.190Z,4.40
2018-07-10T14:18:08.053Z,4.30
2018-07-10T14:20:47.813Z,6.37
2018-07-10T14:23:16.695Z,2.97
2018-07-10T14:25:45.523Z,1.30
2018-07-10T14:28:14.561Z,1.43
2018-07-10T14:30:43.345Z,1.43
2018-07-10T14:33:12.125Z,4.63
2018-07-10T14:35:40.957Z,4.63
2018-07-10T14:38:11.019Z,2.07
2018-07-10T14:40:44.145Z,2.80
2018-07-10T14:43:15.122Z,2.53
2018-07-10T14:45:43.969Z,2.27
2018-07-10T14:48:12.894Z,2.20
2018-07-10T14:50:41.761Z,8.47
2018-07-10T14:53:11.745Z,1.93
2018-07-10T14:55:40.501Z,1.90
2018-07-10T14:58:09.425Z,2.80
2018-07-10T15:00:38.217Z,4.30
2018-07-10T15:03:07.050Z,3.57
2018-07-10T15:05:35.849Z,6.63
2018-07-10T15:08:04.760Z,2.40
2018-07-10T15:10:43.241Z,1.77
2018-07-10T15:13:12.049Z,4.40
2018-07-10T15:15:40.856Z,3.47
2018-07-10T15:18:15.461Z,4.17
2018-07-10T15:20:44.292Z,1.97
2018-07-10T15:23:13.186Z,3.47
2018-07-10T15:25:41.933Z,4.43
2018-07-10T15:28:10.783Z,2.33
2018-07-10T15:30:39.660Z,2.70
2018-07-10T15:33:08.476Z,1.67
2018-07-10T15:35:37.254Z,2.57
2018-07-10T15:38:12.237Z,1.83
2018-07-10T15:40:41.026Z,2.03
2018-07-10T15:43:09.765Z,2.63
2018-07-10T15:45:38.584Z,1.87
2018-07-10T15:48:07.310Z,1.70
2018-07-10T15:50:36.114Z,2.37
2018-07-10T15:53:04.994Z,3.53
2018-07-10T15:55:33.842Z,3.03
2018-07-10T15:58:02.413Z,4.17
2018-07-10T16:00:37.459Z,5.07
2018-07-10T16:03:06.210Z,2.67
2018-07-10T16:05:43.859Z,2.00
2018-07-10T16:08:15.157Z,2.07
2018-07-10T16:10:49.437Z,5.67
2018-07-10T16:13:18.570Z,1.63
2018-07-10T16:15:49.508Z,1.90
2018-07-10T16:18:18.873Z,5.53
2018-07-10T16:20:47.737Z,3.97
2018-07-10T16:23:16.593Z,2.47
2018-07-10T16:25:47.209Z,2.40
2018-07-10T16:28:17.703Z,2.73
2018-07-10T16:31:03.011Z,1.70
2018-07-10T16:33:33.515Z,2.93
2018-07-10T16:36:04.106Z,2.30
2018-07-10T16:38:33.242Z,2.37
2018-07-10T16:41:07.501Z,3.67
2018-07-10T16:43:36.337Z,4.43
2018-07-10T16:46:05.429Z,3.97
2018-07-10T16:49:32.037Z,2.40
2018-07-10T16:52:09.388Z,2.43
2018-07-10T16:54:48.129Z,2.53
2018-07-10T16:57:16.930Z,4.23
2018-07-10T16:59:45.697Z,2.93
2018-07-10T17:02:27.883Z,5.03
2018-07-10T17:04:56.714Z,2.03
2018-07-10T17:07:25.458Z,2.63
2018-07-10T17:09:54.203Z,2.20
2018-07-10T17:12:23.057Z,3.27
2018-07-10T17:15:00.152Z,4.23
2018-07-10T17:17:28.946Z,4.90
2018-07-10T17:19:57.796Z,4.70
2018-07-10T17:22:49.735Z,2.30
2018-07-10T17:25:18.508Z,2.63
2018-07-10T17:27:48.533Z,2.57
2018-07-10T17:30:17.291Z,2.23
2018-07-10T17:32:46.152Z,1.73
2018-07-10T17:35:14.890Z,3.63
2018-07-10T17:37:47.067Z,2.67
2018-07-10T17:40:23.402Z,2.57
2018-07-10T17:42:52.214Z,4.30
2018-07-10T17:45:22.837Z,4.20
2018-07-10T17:47:51.598Z,2.57
2018-07-10T17:50:20.818Z,4.53
2018-07-10T17:52:49.561Z,3.13
2018-07-10T17:55:18.301Z,2.70
2018-07-10T17:57:47.349Z,2.87
2018-07-10T18:00:16.129Z,4.27
2018-07-10T18:02:44.889Z,3.13
2018-07-10T18:05:13.910Z,4.07
2018-07-10T18:07:42.738Z,3.40
2018-07-10T18:10:11.497Z,5.97
2018-07-10T18:12:40.041Z,3.43
2018-07-10T18:15:11.832Z,3.83
2018-07-10T18:17:40.634Z,2.77
2018-07-10T18:20:09.533Z,2.30
2018-07-10T18:22:38.382Z,2.47
2018-07-10T18:25:07.110Z,3.57
2018-07-10T18:27:35.964Z,3.03
2018-07-10T18:30:04.762Z,3.37
2018-07-10T18:32:33.718Z,4.70
2018-07-10T18:35:02.499Z,4.30
2018-07-10T18:37:44.681Z,2.20
2018-07-10T18:40:13.453Z,2.93
2018-07-10T18:42:42.278Z,3.07
2018-07-10T18:45:11.486Z,2.67
2018-07-10T18:47:40.324Z,5.33
2018-07-10T18:50:09.099Z,2.00
2018-07-10T18:52:37.938Z,3.60
2018-07-10T18:55:16.050Z,2.93
2018-07-10T18:57:50.159Z,2.80
2018-07-10T19:00:24.074Z,4.37
2018-07-10T19:03:23.696Z,2.87
2018-07-10T19:05:54.173Z,3.90
2018-07-10T19:08:23.006Z,5.30
2018-07-10T19:10:52.572Z,5.23
2018-07-10T19:13:25.437Z,9.43
2018-07-10T19:15:54.222Z,3.47
2018-07-10T19:18:23.002Z,4.50
2018-07-10T19:21:01.782Z,4.73
2018-07-10T19:23:37.797Z,4.67
2018-07-10T19:26:06.704Z,3.73
2018-07-10T19:28:35.841Z,6.90
2018-07-10T19:31:11.640Z,6.33
2018-07-10T19:33:52.873Z,5.60
2018-07-10T19:36:21.765Z,7.80
2018-07-10T19:38:50.552Z,8.33
2018-07-10T19:41:20.078Z,4.53
2018-07-10T19:43:48.991Z,6.10
2018-07-10T19:46:17.786Z,9.10
2018-07-10T19:48:49.749Z,5.27
2018-07-10T19:51:20.991Z,4.70
2018-07-10T19:53:57.885Z,5.20
2018-07-10T19:56:26.922Z,5.77
2018-07-10T19:58:56.622Z,4.33
2018-07-10T20:01:31.977Z,5.73
2018-07-10T20:04:08.017Z,6.17
2018-07-10T20:07:47.153Z,5.77
2018-07-10T20:10:22.709Z,7.47
2018-07-10T20:12:59.418Z,6.27
2018-07-10T20:17:39.775Z,7.67
2018-07-10T20:20:10.771Z,7.63
2018-07-10T20:22:49.233Z,5.67
2018-07-10T20:25:32.386Z,6.43
2018-07-10T20:28:13.049Z,6.10
2018-07-10T20:30:47.470Z,7.07
2018-07-10T20:33:21.177Z,6.83
2018-07-10T20:35:50.778Z,5.07
2018-07-10T20:38:20.165Z,5.73
2018-07-10T20:40:48.953Z,6.60
2018-07-10T20:43:19.006Z,8.33
2018-07-10T20:45:49.511Z,6.40
2018-07-10T20:48:29.944Z,6.17
2018-07-10T20:51:04.802Z,8.77
2018-07-10T20:53:44.222Z,6.17
2018-07-10T20:56:24.751Z,16.07
2018-07-10T20:58:58.327Z,8.37
2018-07-10T21:01:29.218Z,6.63
2018-07-10T21:04:01.147Z,8.00
2018-07-10T21:06:42.170Z,7.43
2018-07-10T21:09:12.238Z,4.90
2018-07-10T21:11:57.516Z,6.43
2018-07-10T21:15:34.361Z,6.10
2018-07-10T21:18:12.774Z,6.03
2018-07-10T21:20:51.540Z,5.47
2018-07-10T21:23:44.996Z,7.13
2018-07-10T21:27:39.926Z,6.33
2018-07-10T21:30:12.297Z,5.70
2018-07-10T21:32:50.605Z,5.90
2018-07-10T21:35:21.202Z,5.10
2018-07-10T21:38:03.507Z,5.60
2018-07-10T21:40:40.878Z,5.33
2018-07-10T21:43:16.925Z,5.23
2018-07-10T21:45:56.463Z,6.40
2018-07-10T21:48:36.209Z,5.17
2018-07-10T21:51:05.249Z,6.83
2018-07-10T21:53:33.957Z,4.77
2018-07-10T21:56:03.892Z,5.93
2018-07-10T21:58:33.255Z,6.60
2018-07-10T22:01:40.758Z,7.60
2018-07-10T22:04:10.598Z,5.30
2018-07-10T22:06:40.389Z,8.33
2018-07-10T22:09:09.755Z,6.90
2018-07-10T22:11:39.105Z,6.37
2018-07-10T22:14:09.300Z,5.27
2018-07-10T22:16:47.970Z,5.37
2018-07-10T22:19:21.889Z,5.33
2018-07-10T22:21:50.761Z,5.43
2018-07-10T22:24:20.054Z,6.00
2018-07-10T22:26:48.863Z,5.40
2018-07-10T22:29:22.557Z,7.57
2018-07-10T22:31:56.756Z,5.23
2018-07-10T22:34:25.570Z,6.27
2018-07-10T22:36:55.679Z,5.70
2018-07-10T22:39:24.513Z,5.00
2018-07-10T22:41:54.917Z,5.77
2018-07-10T22:44:25.790Z,4.80
2018-07-10T22:46:56.441Z,6.47
2018-07-10T22:49:25.621Z,6.00
2018-07-10T22:51:55.981Z,5.10
2018-07-10T22:54:24.789Z,6.37
2018-07-10T22:56:53.284Z,5.77
2018-07-10T22:59:22.339Z,5.27
2018-07-10T23:01:51.119Z,5.83
2018-07-10T23:04:20.674Z,4.37
2018-07-10T23:06:49.533Z,5.77
2018-07-10T23:09:18.292Z,8.03
2018-07-10T23:11:47.342Z,7.47
2018-07-10T23:14:16.502Z,6.27
2018-07-10T23:16:45.225Z,9.53
2018-07-10T23:19:13.934Z,7.73
2018-07-10T23:21:42.801Z,6.80
2018-07-10T23:24:11.305Z,7.07
2018-07-10T23:26:41.702Z,7.10
2018-07-10T23:29:10.773Z,7.77
2018-07-10T23:31:41.177Z,7.17
2018-07-10T23:34:17.622Z,10.03
2018-07-10T23:36:51.385Z,8.57
2018-07-10T23:39:24.198Z,8.53
2018-07-10T23:42:02.985Z,8.33
2018-07-10T23:44:35.685Z,7.00
2018-07-10T23:47:06.113Z,6.13
2018-07-10T23:49:35.166Z,8.50
2018-07-10T23:52:15.325Z,8.87
2018-07-10T23:54:44.219Z,7.87
2018-07-10T23:57:13.009Z,5.77
2018-07-10T23:59:41.869Z,6.30
